createdAt,value
2023-07-25T00:00:26.606Z,25.01
2023-07-25T00:02:59.551Z,25.00
2023-07-25T00:05:13.594Z,25.00
2023-07-25T00:07:26.822Z,25.01
2023-07-25T00:09:39.516Z,25.01
2023-07-25T00:11:53.554Z,25.00
2023-07-25T00:14:06.233Z,24.99
2023-07-25T00:16:19.446Z,24.99
2023-07-25T00:18:32.394Z,24.99
2023-07-25T00:20:45.384Z,24.99
2023-07-25T00:22:58.254Z,25.00
2023-07-25T00:25:11.956Z,25.01
2023-07-25T00:27:25.233Z,25.02
2023-07-25T00:29:38.549Z,25.03
2023-07-25T00:31:51.529Z,25.06
2023-07-25T00:34:06.070Z,25.08
2023-07-25T00:36:18.923Z,25.10
2023-07-25T00:38:31.935Z,25.10
2023-07-25T00:40:46.858Z,25.12
2023-07-25T00:43:02.900Z,25.13
2023-07-25T00:45:16.912Z,25.15
2023-07-25T00:47:30.176Z,25.17
2023-07-25T00:49:44.280Z,25.19
2023-07-25T00:51:57.453Z,25.22
2023-07-25T00:54:10.881Z,25.23
2023-07-25T00:56:23.949Z,25.26
2023-07-25T00:58:36.482Z,25.27
2023-07-25T01:00:50.368Z,25.28
2023-07-25T01:03:03.231Z,25.29
2023-07-25T01:05:16.981Z,25.29
2023-07-25T01:07:30.909Z,25.29
2023-07-25T01:09:45.080Z,25.31
2023-07-25T01:11:57.907Z,25.32
2023-07-25T01:14:11.171Z,25.29
2023-07-25T01:16:28.187Z,25.27
2023-07-25T01:18:42.504Z,25.26
2023-07-25T01:20:55.696Z,25.26
2023-07-25T01:23:11.306Z,25.28
2023-07-25T01:25:24.100Z,25.28
2023-07-25T01:27:37.284Z,25.28
2023-07-25T01:29:50.074Z,25.30
2023-07-25T01:32:02.655Z,25.31
2023-07-25T01:34:18.899Z,25.31
2023-07-25T01:36:31.523Z,25.31
2023-07-25T01:38:44.768Z,25.30
2023-07-25T01:40:57.346Z,25.28
2023-07-25T01:43:10.156Z,25.27
2023-07-25T01:45:23.114Z,25.27
2023-07-25T01:47:35.698Z,25.28
2023-07-25T01:49:48.304Z,25.29
2023-07-25T01:52:01.804Z,25.25
2023-07-25T01:54:15.028Z,25.23
2023-07-25T01:56:28.235Z,25.23
2023-07-25T01:58:41.151Z,25.22
2023-07-25T02:01:00.054Z,25.22
2023-07-25T02:03:13.138Z,25.21
2023-07-25T02:05:26.328Z,25.20
2023-07-25T02:07:41.631Z,25.17
2023-07-25T02:09:54.555Z,25.14
2023-07-25T02:12:08.157Z,25.12
2023-07-25T02:14:20.900Z,25.11
2023-07-25T02:16:36.050Z,25.10
2023-07-25T02:18:48.751Z,25.09
2023-07-25T02:21:01.861Z,25.07
2023-07-25T02:23:14.646Z,25.05
2023-07-25T02:25:29.078Z,25.01
2023-07-25T02:27:41.948Z,24.99
2023-07-25T02:29:55.115Z,24.97
2023-07-25T02:32:07.947Z,24.98
2023-07-25T02:34:21.526Z,25.00
2023-07-25T02:36:34.267Z,25.01
2023-07-25T02:38:47.053Z,25.01
2023-07-25T02:41:02.241Z,24.98
2023-07-25T02:43:15.309Z,24.95
2023-07-25T02:45:27.789Z,24.95
2023-07-25T02:47:40.690Z,24.94
2023-07-25T02:49:55.227Z,24.94
2023-07-25T02:52:08.818Z,24.92
2023-07-25T02:54:22.001Z,24.89
2023-07-25T02:56:34.599Z,24.86
2023-07-25T02:58:47.043Z,24.83
2023-07-25T03:00:59.691Z,24.81
2023-07-25T03:03:12.924Z,24.78
2023-07-25T03:05:25.965Z,24.73
2023-07-25T03:07:38.775Z,24.69
2023-07-25T03:09:51.529Z,24.62
2023-07-25T03:12:03.999Z,24.57
2023-07-25T03:14:17.310Z,24.53
2023-07-25T03:16:30.117Z,24.49
2023-07-25T03:18:43.032Z,24.44
2023-07-25T03:20:55.701Z,24.40
2023-07-25T03:23:08.609Z,24.35
2023-07-25T03:25:21.556Z,24.28
2023-07-25T03:27:34.718Z,24.22
2023-07-25T03:29:47.628Z,24.14
2023-07-25T03:32:00.065Z,24.08
2023-07-25T03:34:13.062Z,24.00
2023-07-25T03:36:26.559Z,23.94
2023-07-25T03:38:39.162Z,23.88
2023-07-25T03:40:52.485Z,23.81
2023-07-25T03:43:05.215Z,23.74
2023-07-25T03:45:19.359Z,23.66
2023-07-25T03:47:32.927Z,23.59
2023-07-25T03:49:46.037Z,23.54
2023-07-25T03:51:58.925Z,23.50
2023-07-25T03:54:11.977Z,23.46
2023-07-25T03:56:24.943Z,23.42
2023-07-25T03:58:40.796Z,23.37
2023-07-25T04:00:53.988Z,23.33
2023-07-25T04:03:15.072Z,23.28
2023-07-25T04:05:29.069Z,23.24
2023-07-25T04:07:42.247Z,23.23
2023-07-25T04:09:54.883Z,23.20
2023-07-25T04:12:08.202Z,23.18
2023-07-25T04:14:21.088Z,23.15
2023-07-25T04:16:34.106Z,23.14
2023-07-25T04:18:47.069Z,23.11
2023-07-25T04:20:59.967Z,23.09
2023-07-25T04:23:12.548Z,23.07
2023-07-25T04:25:25.453Z,23.07
2023-07-25T04:27:38.005Z,23.07
2023-07-25T04:29:50.461Z,23.07
2023-07-25T04:32:03.134Z,23.06
2023-07-25T04:34:15.955Z,23.06
2023-07-25T04:36:31.119Z,23.05
2023-07-25T04:38:44.315Z,23.04
2023-07-25T04:40:58.991Z,23.04
2023-07-25T04:43:11.629Z,23.04
2023-07-25T04:45:24.595Z,23.05
2023-07-25T04:47:37.541Z,23.05
2023-07-25T04:49:50.485Z,23.05
2023-07-25T04:52:03.335Z,23.05
2023-07-25T04:54:16.300Z,23.04
2023-07-25T04:56:28.906Z,23.02
2023-07-25T04:58:43.317Z,23.01
2023-07-25T05:00:55.900Z,23.00
2023-07-25T05:03:08.443Z,22.99
2023-07-25T05:05:21.262Z,22.97
2023-07-25T05:07:33.866Z,22.94
2023-07-25T05:09:46.555Z,22.91
2023-07-25T05:11:59.681Z,22.90
2023-07-25T05:14:12.122Z,22.88
2023-07-25T05:16:24.919Z,22.88
2023-07-25T05:18:37.802Z,22.86
2023-07-25T05:20:51.036Z,22.85
2023-07-25T05:23:04.269Z,22.83
2023-07-25T05:25:17.146Z,22.81
2023-07-25T05:27:30.124Z,22.79
2023-07-25T05:29:43.540Z,22.76
2023-07-25T05:31:56.000Z,22.73
2023-07-25T05:34:08.492Z,22.70
2023-07-25T05:36:21.486Z,22.69
2023-07-25T05:38:34.239Z,22.69
2023-07-25T05:40:46.848Z,22.69
2023-07-25T05:42:59.313Z,22.68
2023-07-25T05:45:14.234Z,22.67
2023-07-25T05:47:27.025Z,22.63
2023-07-25T05:49:39.786Z,22.61
2023-07-25T05:51:52.656Z,22.61
2023-07-25T05:54:05.292Z,22.61
2023-07-25T05:56:18.389Z,22.60
2023-07-25T05:58:31.502Z,22.58
2023-07-25T06:00:45.472Z,22.56
2023-07-25T06:02:59.108Z,22.54
2023-07-25T06:05:12.477Z,22.50
2023-07-25T06:07:25.300Z,22.45
2023-07-25T06:09:39.231Z,22.42
2023-07-25T06:11:52.168Z,22.37
2023-07-25T06:14:06.505Z,22.35
2023-07-25T06:16:21.731Z,22.32
2023-07-25T06:18:34.520Z,22.29
2023-07-25T06:20:47.617Z,22.24
2023-07-25T06:23:00.153Z,22.19
2023-07-25T06:25:16.619Z,22.15
2023-07-25T06:27:30.280Z,22.12
2023-07-25T06:29:43.259Z,22.10
2023-07-25T06:31:55.812Z,22.08
2023-07-25T06:34:09.109Z,22.06
2023-07-25T06:36:21.888Z,22.06
2023-07-25T06:38:34.697Z,22.05
2023-07-25T06:40:47.332Z,22.03
2023-07-25T06:43:00.174Z,22.02
2023-07-25T06:45:14.640Z,21.98
2023-07-25T06:47:27.872Z,21.98
2023-07-25T06:49:40.594Z,21.97
2023-07-25T06:51:53.291Z,21.95
2023-07-25T06:54:05.894Z,21.93
2023-07-25T06:56:18.574Z,21.91
2023-07-25T06:58:31.469Z,21.89
2023-07-25T07:00:44.400Z,21.89
2023-07-25T07:02:57.905Z,21.86
2023-07-25T07:05:27.907Z,21.85
2023-07-25T07:07:40.332Z,21.83
2023-07-25T07:09:53.367Z,21.81
2023-07-25T07:12:06.233Z,21.80
2023-07-25T07:14:19.053Z,21.81
2023-07-25T07:16:31.646Z,21.80
2023-07-25T07:18:44.366Z,21.79
2023-07-25T07:20:57.094Z,21.77
2023-07-25T07:23:09.782Z,21.77
2023-07-25T07:25:22.339Z,21.75
2023-07-25T07:27:35.595Z,21.75
2023-07-25T07:29:48.584Z,21.73
2023-07-25T07:32:01.809Z,21.73
2023-07-25T07:34:19.990Z,21.71
2023-07-25T07:36:32.611Z,21.70
2023-07-25T07:38:45.571Z,21.68
2023-07-25T07:40:58.523Z,21.66
2023-07-25T07:43:11.460Z,21.64
2023-07-25T07:45:26.128Z,21.62
2023-07-25T07:47:38.946Z,21.61
2023-07-25T07:49:51.698Z,21.59
2023-07-25T07:52:15.780Z,21.58
2023-07-25T07:54:33.028Z,21.56
2023-07-25T07:56:45.854Z,21.56
2023-07-25T07:58:58.460Z,21.55
2023-07-25T08:01:20.109Z,21.55
2023-07-25T08:03:32.688Z,21.56
2023-07-25T08:05:45.329Z,21.57
2023-07-25T08:07:58.393Z,21.58
2023-07-25T08:10:11.847Z,21.59
2023-07-25T08:12:24.780Z,21.60
2023-07-25T08:14:37.791Z,21.59
2023-07-25T08:16:50.610Z,21.60
2023-07-25T08:19:03.750Z,21.59
2023-07-25T08:21:16.345Z,21.58
2023-07-25T08:23:29.983Z,21.56
2023-07-25T08:25:44.238Z,21.55
2023-07-25T08:27:58.421Z,21.52
2023-07-25T08:30:12.898Z,21.51
2023-07-25T08:32:27.131Z,21.51
2023-07-25T08:34:40.010Z,21.50
2023-07-25T08:36:52.559Z,21.50
2023-07-25T08:39:05.615Z,21.49
2023-07-25T08:41:26.228Z,21.49
2023-07-25T08:43:42.108Z,21.49
2023-07-25T08:45:55.878Z,21.48
2023-07-25T08:48:15.057Z,21.49
2023-07-25T08:50:30.395Z,21.48
2023-07-25T08:52:43.965Z,21.46
2023-07-25T08:54:57.198Z,21.45
2023-07-25T08:57:10.466Z,21.45
2023-07-25T08:59:24.390Z,21.45
2023-07-25T09:01:37.651Z,21.46
2023-07-25T09:03:51.883Z,21.46
2023-07-25T09:06:05.339Z,21.46
2023-07-25T09:08:17.895Z,21.44
2023-07-25T09:10:31.663Z,21.43
2023-07-25T09:12:44.529Z,21.42
2023-07-25T09:14:57.672Z,21.41
2023-07-25T09:17:10.808Z,21.40
2023-07-25T09:19:23.707Z,21.40
2023-07-25T09:21:36.280Z,21.38
2023-07-25T09:23:57.083Z,21.38
2023-07-25T09:26:13.309Z,21.38
2023-07-25T09:28:26.206Z,21.38
2023-07-25T09:30:38.747Z,21.37
2023-07-25T09:32:57.358Z,21.36
2023-07-25T09:35:12.274Z,21.35
2023-07-25T09:37:24.845Z,21.34
2023-07-25T09:39:39.743Z,21.33
2023-07-25T09:41:54.575Z,21.31
2023-07-25T09:44:09.221Z,21.25
2023-07-25T09:46:22.389Z,21.20
2023-07-25T09:48:36.164Z,21.13
2023-07-25T09:50:49.065Z,21.03
2023-07-25T09:53:04.557Z,20.95
2023-07-25T09:55:17.331Z,20.86
2023-07-25T09:57:30.080Z,20.75
2023-07-25T09:59:43.473Z,20.66
2023-07-25T10:01:58.228Z,20.60
2023-07-25T10:04:12.555Z,20.54
2023-07-25T10:06:26.119Z,20.49
2023-07-25T10:08:38.999Z,20.43
2023-07-25T10:10:52.323Z,20.35
2023-07-25T10:13:05.243Z,20.29
2023-07-25T10:15:19.348Z,20.23
2023-07-25T10:17:33.060Z,20.15
2023-07-25T10:19:56.163Z,20.07
2023-07-25T10:22:09.167Z,19.98
2023-07-25T10:24:22.857Z,19.92
2023-07-25T10:26:35.908Z,19.84
2023-07-25T10:28:48.529Z,19.77
2023-07-25T10:34:02.548Z,19.57
2023-07-25T10:36:28.580Z,19.53
2023-07-25T10:38:43.193Z,19.50
2023-07-25T10:41:05.703Z,19.48
2023-07-25T10:43:18.905Z,19.45
2023-07-25T10:45:54.878Z,19.43
2023-07-25T10:48:28.011Z,19.41
2023-07-25T10:50:56.763Z,19.38
2023-07-25T10:53:22.537Z,19.36
2023-07-25T10:55:35.303Z,19.32
2023-07-25T10:58:07.953Z,19.28
2023-07-25T11:00:21.428Z,19.24
2023-07-25T11:02:40.027Z,19.23
2023-07-25T11:05:12.603Z,19.21
2023-07-25T11:07:25.725Z,19.18
2023-07-25T11:09:43.001Z,19.18
2023-07-25T11:11:56.565Z,19.16
2023-07-25T11:14:13.132Z,19.15
2023-07-25T11:16:28.013Z,19.14
2023-07-25T11:18:52.025Z,19.13
2023-07-25T11:21:09.219Z,19.11
2023-07-25T11:23:25.021Z,19.08
2023-07-25T11:25:37.635Z,19.07
2023-07-25T11:27:54.128Z,19.07
2023-07-25T11:30:18.605Z,19.05
2023-07-25T11:32:34.451Z,19.04
2023-07-25T11:34:52.088Z,19.02
2023-07-25T11:37:04.641Z,18.99
2023-07-25T11:39:17.951Z,18.95
2023-07-25T11:41:31.218Z,18.93
2023-07-25T11:43:46.750Z,18.92
2023-07-25T11:45:59.548Z,18.90
2023-07-25T11:48:16.188Z,18.88
2023-07-25T11:50:31.353Z,18.88
2023-07-25T11:52:47.773Z,18.86
2023-07-25T11:55:00.392Z,18.86
2023-07-25T11:57:15.365Z,18.86
2023-07-25T11:59:27.834Z,18.85
2023-07-25T12:01:40.809Z,18.85
2023-07-25T12:03:56.653Z,18.84
2023-07-25T12:06:10.180Z,18.84
2023-07-25T12:08:36.457Z,18.83
2023-07-25T12:10:50.768Z,18.83
2023-07-25T12:13:05.155Z,18.81
2023-07-25T12:15:18.400Z,18.80
2023-07-25T12:17:47.315Z,18.79
2023-07-25T12:20:03.290Z,18.76
2023-07-25T12:22:15.765Z,18.74
2023-07-25T12:24:28.648Z,18.72
2023-07-25T12:26:50.052Z,18.70
2023-07-25T12:29:02.720Z,18.69
2023-07-25T12:31:16.381Z,18.67
2023-07-25T12:33:29.686Z,18.66
2023-07-25T12:35:43.777Z,18.66
2023-07-25T12:37:56.396Z,18.64
2023-07-25T12:40:10.272Z,18.63
2023-07-25T12:42:22.890Z,18.62
2023-07-25T12:44:35.594Z,18.61
2023-07-25T12:46:48.126Z,18.61
2023-07-25T12:49:00.678Z,18.59
2023-07-25T12:51:13.280Z,18.58
2023-07-25T12:53:25.980Z,18.56
2023-07-25T12:55:39.102Z,18.54
2023-07-25T12:57:51.940Z,18.54
2023-07-25T13:00:07.220Z,18.52
2023-07-25T13:02:20.137Z,18.50
2023-07-25T13:04:33.381Z,18.51
2023-07-25T13:06:46.224Z,18.51
2023-07-25T13:08:58.763Z,18.51
2023-07-25T13:11:11.379Z,18.50
2023-07-25T13:13:23.879Z,18.50
2023-07-25T13:15:36.819Z,18.49
2023-07-25T13:17:49.501Z,18.49
2023-07-25T13:20:02.346Z,18.49
2023-07-25T13:22:15.374Z,18.47
2023-07-25T13:24:28.004Z,18.47
2023-07-25T13:26:40.488Z,18.48
2023-07-25T13:28:53.531Z,18.47
2023-07-25T13:31:07.005Z,18.46
2023-07-25T13:33:19.557Z,18.44
2023-07-25T13:35:32.304Z,18.43
2023-07-25T13:37:45.333Z,18.42
2023-07-25T13:39:58.033Z,18.43
2023-07-25T13:42:11.155Z,18.43
2023-07-25T13:44:23.724Z,18.44
2023-07-25T13:46:36.328Z,18.44
2023-07-25T13:48:49.793Z,18.46
2023-07-25T13:51:03.053Z,18.49
2023-07-25T13:53:16.219Z,18.49
2023-07-25T13:55:29.204Z,18.51
2023-07-25T13:57:41.804Z,18.53
2023-07-25T13:59:54.514Z,18.53
2023-07-25T14:02:07.505Z,18.56
2023-07-25T14:04:20.710Z,18.57
2023-07-25T14:06:33.241Z,18.61
2023-07-25T14:08:45.752Z,18.64
2023-07-25T14:10:58.563Z,18.66
2023-07-25T14:13:11.628Z,18.68
2023-07-25T14:15:24.465Z,18.70
2023-07-25T14:17:37.066Z,18.71
2023-07-25T14:19:49.627Z,18.73
2023-07-25T14:22:02.495Z,18.74
2023-07-25T14:24:15.104Z,18.76
2023-07-25T14:26:27.648Z,18.77
2023-07-25T14:28:40.412Z,18.80
2023-07-25T14:30:53.400Z,18.80
2023-07-25T14:33:06.027Z,18.83
2023-07-25T14:35:19.034Z,18.85
2023-07-25T14:37:40.288Z,18.88
2023-07-25T14:40:01.880Z,18.91
2023-07-25T14:42:14.622Z,18.95
2023-07-25T14:44:27.179Z,18.99
2023-07-25T14:46:39.778Z,19.01
2023-07-25T14:48:52.794Z,19.04
2023-07-25T14:51:05.320Z,19.08
2023-07-25T14:53:18.068Z,19.11
2023-07-25T14:55:30.944Z,19.16
2023-07-25T14:57:43.737Z,19.20
2023-07-25T14:59:56.163Z,19.26
2023-07-25T15:02:09.182Z,19.29
2023-07-25T15:04:21.816Z,19.31
2023-07-25T15:06:34.584Z,19.33
2023-07-25T15:08:48.083Z,19.34
2023-07-25T15:11:00.861Z,19.34
2023-07-25T15:13:13.738Z,19.36
2023-07-25T15:15:26.632Z,19.39
2023-07-25T15:17:40.303Z,19.41
2023-07-25T15:19:52.967Z,19.45
2023-07-25T15:22:05.769Z,19.48
2023-07-25T15:24:18.370Z,19.52
2023-07-25T15:26:31.253Z,19.56
2023-07-25T15:28:44.119Z,19.61
2023-07-25T15:30:58.205Z,19.66
2023-07-25T15:33:13.169Z,19.68
2023-07-25T15:35:28.987Z,19.71
2023-07-25T15:37:42.623Z,19.75
2023-07-25T15:39:55.937Z,19.79
2023-07-25T15:42:10.350Z,19.80
2023-07-25T15:44:23.085Z,19.84
2023-07-25T15:46:35.748Z,19.87
2023-07-25T15:48:48.867Z,19.92
2023-07-25T15:51:01.644Z,19.99
2023-07-25T15:53:14.940Z,20.06
2023-07-25T15:55:28.598Z,20.12
2023-07-25T15:57:41.113Z,20.19
2023-07-25T15:59:54.408Z,20.25
2023-07-25T16:02:07.201Z,20.30
2023-07-25T16:04:20.031Z,20.36
2023-07-25T16:06:32.441Z,20.46
2023-07-25T16:08:45.063Z,20.57
2023-07-25T16:10:57.741Z,20.70
2023-07-25T16:13:11.393Z,20.85
2023-07-25T16:15:24.509Z,21.04
2023-07-25T16:17:36.994Z,21.20
2023-07-25T16:19:49.798Z,21.33
2023-07-25T16:22:02.353Z,21.43
2023-07-25T16:24:15.197Z,21.47
2023-07-25T16:26:27.798Z,21.47
2023-07-25T16:28:40.376Z,21.43
2023-07-25T16:30:58.962Z,21.43
2023-07-25T16:33:19.739Z,21.46
2023-07-25T16:35:32.227Z,21.47
2023-07-25T16:37:46.754Z,21.48
2023-07-25T16:39:59.642Z,21.49
2023-07-25T16:42:14.353Z,21.49
2023-07-25T16:44:26.847Z,21.51
2023-07-25T16:46:39.809Z,21.54
2023-07-25T16:48:52.343Z,21.59
2023-07-25T16:51:04.995Z,21.64
2023-07-25T16:53:17.716Z,21.69
2023-07-25T16:55:30.322Z,21.73
2023-07-25T16:57:43.026Z,21.76
2023-07-25T16:59:55.649Z,21.80
2023-07-25T17:02:08.776Z,21.81
2023-07-25T17:04:21.560Z,21.87
2023-07-25T17:06:33.971Z,21.98
2023-07-25T17:08:48.143Z,22.07
2023-07-25T17:11:06.052Z,22.16
2023-07-25T17:13:18.720Z,22.29
2023-07-25T17:15:31.787Z,22.43
2023-07-25T17:17:45.051Z,22.55
2023-07-25T17:19:57.924Z,22.59
2023-07-25T17:22:11.314Z,22.62
2023-07-25T17:24:24.286Z,22.56
2023-07-25T17:26:37.019Z,22.52
2023-07-25T17:28:49.573Z,22.44
2023-07-25T17:31:02.634Z,22.34
2023-07-25T17:33:15.237Z,22.28
2023-07-25T17:35:36.728Z,22.25
2023-07-25T17:37:50.417Z,22.28
2023-07-25T17:40:03.280Z,22.34
2023-07-25T17:42:16.081Z,22.39
2023-07-25T17:44:28.704Z,22.43
2023-07-25T17:46:41.245Z,22.48
2023-07-25T17:48:55.590Z,22.53
2023-07-25T17:51:08.475Z,22.57
2023-07-25T17:53:21.600Z,22.59
2023-07-25T17:55:34.494Z,22.61
2023-07-25T17:57:47.134Z,22.65
2023-07-25T18:00:00.569Z,22.67
2023-07-25T18:02:13.568Z,22.70
2023-07-25T18:04:26.314Z,22.73
2023-07-25T18:06:39.053Z,22.72
2023-07-25T18:08:52.482Z,22.68
2023-07-25T18:11:05.067Z,22.64
2023-07-25T18:13:17.766Z,22.63
2023-07-25T18:15:30.916Z,22.63
2023-07-25T18:17:43.646Z,22.63
2023-07-25T18:19:57.202Z,22.61
2023-07-25T18:22:10.695Z,22.60
2023-07-25T18:24:23.520Z,22.59
2023-07-25T18:26:38.747Z,22.58
2023-07-25T18:28:52.130Z,22.62
2023-07-25T18:31:04.837Z,22.68
2023-07-25T18:33:17.940Z,22.71
2023-07-25T18:35:30.969Z,22.70
2023-07-25T18:37:43.823Z,22.64
2023-07-25T18:39:56.542Z,22.59
2023-07-25T18:42:09.900Z,22.60
2023-07-25T18:44:22.813Z,22.68
2023-07-25T18:46:36.210Z,22.75
2023-07-25T18:48:50.780Z,22.80
2023-07-25T18:51:04.402Z,22.88
2023-07-25T18:53:17.078Z,22.99
2023-07-25T18:55:30.549Z,23.15
2023-07-25T18:57:43.276Z,23.28
2023-07-25T18:59:57.876Z,23.40
2023-07-25T19:02:11.271Z,23.55
2023-07-25T19:04:23.989Z,23.67
2023-07-25T19:06:37.106Z,23.79
2023-07-25T19:08:49.948Z,23.91
2023-07-25T19:11:02.825Z,23.98
2023-07-25T19:13:15.663Z,24.02
2023-07-25T19:15:28.849Z,24.08
2023-07-25T19:17:41.663Z,24.14
2023-07-25T19:19:54.473Z,24.19
2023-07-25T19:22:08.882Z,24.30
2023-07-25T19:24:23.264Z,24.43
2023-07-25T19:26:36.477Z,24.62
2023-07-25T19:28:49.401Z,24.87
2023-07-25T19:31:03.171Z,25.15
2023-07-25T19:33:16.015Z,25.38
2023-07-25T19:35:29.804Z,25.48
2023-07-25T19:37:44.445Z,25.55
2023-07-25T19:39:57.135Z,25.64
2023-07-25T19:42:10.441Z,25.79
2023-07-25T19:44:23.125Z,25.98
2023-07-25T19:46:36.447Z,26.19
2023-07-25T19:48:51.204Z,26.32
2023-07-25T19:51:13.315Z,26.43
2023-07-25T19:53:26.241Z,26.57
2023-07-25T19:55:39.022Z,26.71
2023-07-25T19:57:52.105Z,26.82
2023-07-25T20:00:07.136Z,26.90
2023-07-25T20:02:19.821Z,26.88
2023-07-25T20:04:32.606Z,26.93
2023-07-25T20:06:45.463Z,26.90
2023-07-25T20:09:00.035Z,26.79
2023-07-25T20:11:14.117Z,26.81
2023-07-25T20:13:27.194Z,26.93
2023-07-25T20:15:39.919Z,26.86
2023-07-25T20:17:53.063Z,26.84
2023-07-25T20:20:06.100Z,26.87
2023-07-25T20:22:19.805Z,26.95
2023-07-25T20:24:33.002Z,27.03
2023-07-25T20:26:45.729Z,27.14
2023-07-25T20:28:58.850Z,27.29
2023-07-25T20:31:12.401Z,27.41
2023-07-25T20:33:25.417Z,27.47
2023-07-25T20:35:38.121Z,27.48
2023-07-25T20:37:50.980Z,27.49
2023-07-25T20:40:03.923Z,27.49
2023-07-25T20:42:16.553Z,27.52
2023-07-25T20:44:29.172Z,27.56
2023-07-25T20:46:41.898Z,27.61
2023-07-25T20:48:54.762Z,27.56
2023-07-25T20:51:08.218Z,27.49
2023-07-25T20:53:21.190Z,27.45
2023-07-25T20:55:34.178Z,27.42
2023-07-25T20:57:47.410Z,27.44
2023-07-25T21:00:00.662Z,27.49
2023-07-25T21:02:13.378Z,27.54
2023-07-25T21:04:28.340Z,27.57
2023-07-25T21:06:41.741Z,27.61
2023-07-25T21:08:54.648Z,27.66
2023-07-25T21:11:10.174Z,27.70
2023-07-25T21:13:23.257Z,27.71
2023-07-25T21:15:35.880Z,27.71
2023-07-25T21:17:55.634Z,27.70
2023-07-25T21:20:17.744Z,27.70
2023-07-25T21:22:30.520Z,27.70
2023-07-25T21:24:43.517Z,27.68
2023-07-25T21:26:56.443Z,27.67
2023-07-25T21:29:09.215Z,27.54
2023-07-25T21:31:22.408Z,27.39
2023-07-25T21:33:35.212Z,27.27
2023-07-25T21:35:47.963Z,27.24
2023-07-25T21:38:00.680Z,27.29
2023-07-25T21:40:16.981Z,27.37
2023-07-25T21:42:29.655Z,27.48
2023-07-25T21:44:42.208Z,27.56
2023-07-25T21:46:55.499Z,27.61
2023-07-25T21:49:08.370Z,27.71
2023-07-25T21:51:24.099Z,27.75
2023-07-25T21:53:37.050Z,27.74
2023-07-25T21:55:50.335Z,27.77
2023-07-25T21:58:03.237Z,27.85
2023-07-25T22:00:17.916Z,27.96
2023-07-25T22:02:31.045Z,27.97
2023-07-25T22:04:44.350Z,27.93
2023-07-25T22:06:57.121Z,27.84
2023-07-25T22:09:09.937Z,27.73
2023-07-25T22:11:23.091Z,27.69
2023-07-25T22:13:35.975Z,27.64
2023-07-25T22:15:48.914Z,27.63
2023-07-25T22:18:01.997Z,27.67
2023-07-25T22:20:17.188Z,27.71
2023-07-25T22:22:29.781Z,27.81
2023-07-25T22:24:42.485Z,27.90
2023-07-25T22:26:55.169Z,27.94
2023-07-25T22:29:07.898Z,27.99
2023-07-25T22:31:20.962Z,28.01
2023-07-25T22:33:33.938Z,27.96
2023-07-25T22:35:46.629Z,27.81
2023-07-25T22:38:09.086Z,27.75
2023-07-25T22:40:21.773Z,27.75
2023-07-25T22:42:34.339Z,27.77
2023-07-25T22:44:47.053Z,27.81
2023-07-25T22:46:59.759Z,27.88
2023-07-25T22:49:12.489Z,27.94
2023-07-25T22:51:25.217Z,27.95
2023-07-25T22:53:37.885Z,27.99
2023-07-25T22:55:50.580Z,28.06
2023-07-25T22:58:03.702Z,28.13
2023-07-25T23:00:17.874Z,28.18
2023-07-25T23:02:30.628Z,28.21
2023-07-25T23:04:43.865Z,28.21
2023-07-25T23:09:22.307Z,28.07
2023-07-25T23:11:39.765Z,27.92
2023-07-25T23:13:52.763Z,27.86
2023-07-25T23:16:05.338Z,27.86
2023-07-25T23:18:18.139Z,27.92
2023-07-25T23:20:31.245Z,27.91
2023-07-25T23:22:43.969Z,27.92
2023-07-25T23:24:58.181Z,27.94
2023-07-25T23:27:11.683Z,27.98
2023-07-25T23:29:24.219Z,28.03
2023-07-25T23:31:37.025Z,28.09
2023-07-25T23:33:49.777Z,28.14
2023-07-25T23:36:03.139Z,28.16
2023-07-25T23:38:16.139Z,28.17
2023-07-25T23:40:29.182Z,28.17
2023-07-25T23:42:41.950Z,28.21
2023-07-25T23:44:54.530Z,28.26
2023-07-25T23:47:08.507Z,28.28
2023-07-25T23:49:21.419Z,28.29
2023-07-25T23:51:34.166Z,28.29
2023-07-25T23:53:46.627Z,28.32
2023-07-25T23:56:02.569Z,28.29
2023-07-25T23:58:15.407Z,28.25
